Time;durP1;ratioP1;P1;durP2;ratioP2;P2;SDS_P1;SDS_P2;PMS_P1;PMS_P2;Temp;Humidity;BMP_temperature;BMP_pressure;BME280_temperature;BME280_humidity;BME280_pressure;Samples;Min_cycle;Max_cycle;Signal;HPM_P1;HPM_P2
2021/09/16 00:01:21;;;;;;;2.97;2.60;;;5.60;99.90;;;;;;5028841;28;20108;-66
2021/09/16 00:03:46;;;;;;;5.85;3.08;;;5.60;99.90;;;;;;5028830;28;20082;-66
2021/09/16 00:06:12;;;;;;;3.30;2.92;;;5.60;99.90;;;;;;5028723;28;20396;-67
2021/09/16 00:08:38;;;;;;;4.38;2.97;;;5.60;99.90;;;;;;5028824;28;20078;-67
2021/09/16 00:11:04;;;;;;;4.63;2.95;;;5.40;99.90;;;;;;5028613;28;20029;-67
2021/09/16 00:13:30;;;;;;;3.03;2.72;;;5.30;99.90;;;;;;5028626;28;20032;-67
2021/09/16 00:15:56;;;;;;;6.28;3.20;;;5.30;99.90;;;;;;5028624;28;20044;-67
2021/09/16 00:18:22;;;;;;;4.43;3.20;;;5.30;99.90;;;;;;5028401;28;20090;-67
2021/09/16 00:20:49;;;;;;;4.25;3.08;;;5.40;99.90;;;;;;5028839;28;20037;-67
2021/09/16 00:23:15;;;;;;;9.50;3.05;;;5.40;99.90;;;;;;5028413;28;20026;-67
2021/09/16 00:25:41;;;;;;;4.03;3.53;;;5.40;99.90;;;;;;5028602;28;20537;-67
2021/09/16 00:28:06;;;;;;;6.35;3.00;;;5.30;99.90;;;;;;5028300;28;20120;-67
2021/09/16 00:30:32;;;;;;;9.90;3.08;;;5.40;99.90;;;;;;5028524;28;20018;-67
2021/09/16 00:32:58;;;;;;;5.40;2.95;;;5.40;99.90;;;;;;5028373;28;20083;-67
2021/09/16 00:35:24;;;;;;;4.38;3.08;;;5.40;99.90;;;;;;5028232;28;20122;-67
2021/09/16 00:37:50;;;;;;;3.40;3.10;;;5.40;99.90;;;;;;5028421;28;20125;-67
2021/09/16 00:40:16;;;;;;;4.57;2.70;;;5.40;99.90;;;;;;5028164;28;20041;-67
2021/09/16 00:42:43;;;;;;;3.10;2.80;;;5.40;99.90;;;;;;5028267;28;20030;-67
2021/09/16 00:45:09;;;;;;;4.63;2.80;;;5.50;99.90;;;;;;5028804;28;20109;-67
2021/09/16 00:47:38;;;;;;;2.88;2.55;;;5.50;99.90;;;;;;5031493;28;20052;-66
2021/09/16 00:50:05;;;;;;;7.13;3.33;;;5.50;99.90;;;;;;5031640;28;20040;-67
2021/09/16 00:52:33;;;;;;;3.28;2.80;;;5.50;99.90;;;;;;5031911;28;20075;-66
2021/09/16 00:55:01;;;;;;;5.43;3.22;;;5.50;99.90;;;;;;5031494;28;20071;-67
2021/09/16 00:57:28;;;;;;;5.55;3.15;;;5.50;99.90;;;;;;5031546;28;20026;-67
2021/09/16 00:59:56;;;;;;;3.08;2.75;;;5.50;99.90;;;;;;5031714;28;20030;-67
2021/09/16 01:02:22;;;;;;;6.80;2.80;;;5.50;99.90;;;;;;5031627;28;20040;-67
2021/09/16 01:04:48;;;;;;;3.58;3.10;;;5.60;99.90;;;;;;5031493;28;20489;-67
2021/09/16 01:07:14;;;;;;;4.55;2.88;;;5.70;99.90;;;;;;5031607;28;20045;-67
2021/09/16 01:09:42;;;;;;;3.30;2.80;;;5.70;99.90;;;;;;5031589;28;20056;-67
2021/09/16 01:12:08;;;;;;;3.30;3.00;;;5.70;99.90;;;;;;5031284;28;20017;-67
2021/09/16 01:14:34;;;;;;;3.55;3.20;;;5.70;99.90;;;;;;5031316;28;20045;-67
2021/09/16 01:17:00;;;;;;;3.45;3.00;;;5.70;99.90;;;;;;5031386;28;20109;-67
2021/09/16 01:19:26;;;;;;;3.78;3.00;;;5.70;99.90;;;;;;5031079;28;20025;-67
2021/09/16 01:21:52;;;;;;;3.15;2.85;;;5.70;99.90;;;;;;5031307;28;20155;-67
2021/09/16 01:24:18;;;;;;;3.00;2.70;;;5.70;99.90;;;;;;5031118;28;20049;-67
2021/09/16 01:26:46;;;;;;;3.28;2.95;;;5.80;99.90;;;;;;5031248;28;20030;-67
2021/09/16 01:29:12;;;;;;;4.25;2.90;;;5.80;99.90;;;;;;5030971;28;20033;-67
2021/09/16 01:31:41;;;;;;;5.95;3.13;;;5.80;99.90;;;;;;5031398;28;20506;-67
2021/09/16 01:34:08;;;;;;;3.30;2.92;;;5.80;99.90;;;;;;5031045;28;20490;-67
2021/09/16 01:36:35;;;;;;;3.70;3.10;;;5.80;99.90;;;;;;5031264;28;20029;-67
2021/09/16 01:39:04;;;;;;;4.00;3.00;;;5.80;99.90;;;;;;5030675;28;20033;-67
2021/09/16 01:41:30;;;;;;;3.35;3.05;;;5.80;99.90;;;;;;5030734;28;20617;-67
2021/09/16 01:43:56;;;;;;;3.40;3.10;;;5.80;99.90;;;;;;5030763;28;20033;-67
2021/09/16 01:46:22;;;;;;;7.47;2.95;;;5.80;99.90;;;;;;5030656;28;20394;-67
2021/09/16 01:48:48;;;;;;;3.58;2.80;;;5.80;99.90;;;;;;5030521;28;20121;-67
2021/09/16 01:51:14;;;;;;;3.40;3.10;;;5.80;99.90;;;;;;5030520;28;20462;-67
2021/09/16 01:53:40;;;;;;;5.80;2.97;;;5.70;99.90;;;;;;5030852;28;20021;-67
2021/09/16 01:56:06;;;;;;;3.97;2.90;;;5.80;99.90;;;;;;5030642;28;20056;-67
2021/09/16 01:58:32;;;;;;;4.25;3.20;;;5.80;99.90;;;;;;5030289;28;20065;-67
2021/09/16 02:00:59;;;;;;;3.40;3.03;;;5.80;99.90;;;;;;5030587;28;20123;-67
2021/09/16 02:03:24;;;;;;;6.18;3.20;;;5.80;99.90;;;;;;5030322;28;20085;-67
2021/09/16 02:05:50;;;;;;;5.05;4.03;;;5.80;99.90;;;;;;5030434;28;20112;-66
2021/09/16 02:08:16;;;;;;;4.78;3.00;;;5.80;99.90;;;;;;5030127;28;20025;-66
2021/09/16 02:10:42;;;;;;;4.80;3.20;;;5.90;99.90;;;;;;5030364;28;20030;-66
2021/09/16 02:13:07;;;;;;;5.03;3.60;;;5.90;99.90;;;;;;5030308;28;20017;-67
2021/09/16 02:15:33;;;;;;;3.55;3.25;;;5.90;99.90;;;;;;5030154;28;20026;-66
2021/09/16 02:17:59;;;;;;;5.07;3.83;;;5.90;99.90;;;;;;5030066;28;20598;-66
2021/09/16 02:20:25;;;;;;;5.55;3.15;;;5.90;99.90;;;;;;5030376;28;20021;-67
2021/09/16 02:22:50;;;;;;;4.03;3.33;;;5.90;99.90;;;;;;5030133;28;20142;-67
2021/09/16 02:51:55;;;;;;;7.50;3.75;;;6.00;99.90;;;;;;5029043;28;20045;-67
2021/09/16 02:54:20;;;;;;;8.70;3.70;;;5.90;99.90;;;;;;5029675;28;20392;-67
2021/09/16 02:56:47;;;;;;;5.18;3.33;;;6.00;99.90;;;;;;5029857;28;20029;-67
2021/09/16 02:59:13;;;;;;;6.50;3.20;;;6.00;99.90;;;;;;5029619;28;20056;-67
2021/09/16 03:01:39;;;;;;;10.40;3.20;;;6.00;99.90;;;;;;5029609;28;20480;-67
2021/09/16 03:04:04;;;;;;;8.05;3.20;;;5.90;99.90;;;;;;5029619;28;20030;-67
2021/09/16 03:06:30;;;;;;;5.95;3.10;;;5.90;99.90;;;;;;5029497;28;20093;-67
2021/09/16 03:08:56;;;;;;;3.90;3.05;;;5.90;99.90;;;;;;5029217;28;20079;-67
2021/09/16 03:11:21;;;;;;;7.80;3.15;;;5.90;99.90;;;;;;5029610;28;20029;-67
2021/09/16 03:13:47;;;;;;;3.15;2.80;;;5.90;99.90;;;;;;5029452;28;20426;-67
2021/09/16 03:16:13;;;;;;;7.15;3.30;;;5.90;99.90;;;;;;5029401;28;20403;-67
2021/09/16 03:18:39;;;;;;;7.72;3.97;;;5.90;99.90;;;;;;5029071;28;20034;-66
2021/09/16 03:21:04;;;;;;;3.13;2.83;;;5.80;99.90;;;;;;5029400;28;20021;-67
2021/09/16 03:23:30;;;;;;;3.63;2.97;;;5.80;99.90;;;;;;5029225;28;20036;-67
2021/09/16 03:25:56;;;;;;;3.30;2.90;;;5.70;99.90;;;;;;5029278;28;20028;-67
2021/09/16 03:28:21;;;;;;;3.55;3.00;;;5.70;99.90;;;;;;5029018;28;20055;-67
2021/09/16 03:30:47;;;;;;;3.75;3.30;;;5.60;99.90;;;;;;5029491;28;20022;-67
2021/09/16 03:33:13;;;;;;;4.80;3.10;;;5.60;99.90;;;;;;5029235;28;20457;-67
2021/09/16 03:35:38;;;;;;;6.53;3.00;;;5.60;99.90;;;;;;5029054;28;20070;-67
2021/09/16 03:38:04;;;;;;;4.47;2.80;;;5.70;99.90;;;;;;5029097;28;20400;-67
2021/09/16 03:40:30;;;;;;;3.60;3.00;;;5.80;99.90;;;;;;5029241;28;20025;-67
2021/09/16 03:42:56;;;;;;;4.53;3.15;;;5.80;99.90;;;;;;5029183;28;20109;-67
2021/09/16 03:45:21;;;;;;;8.25;3.05;;;5.70;99.90;;;;;;5029017;28;20045;-67
2021/09/16 03:47:47;;;;;;;3.67;3.28;;;5.70;99.90;;;;;;5028942;28;20022;-67
2021/09/16 03:50:13;;;;;;;8.55;3.10;;;5.70;99.90;;;;;;5029035;28;20029;-67
2021/09/16 03:52:39;;;;;;;3.58;3.10;;;5.70;99.90;;;;;;5028823;28;20050;-67
2021/09/16 03:55:05;;;;;;;14.45;3.15;;;5.70;99.90;;;;;;5027735;28;20447;-68
2021/09/16 03:57:31;;;;;;;6.00;3.20;;;5.70;99.90;;;;;;5028684;28;20040;-68
2021/09/16 03:59:56;;;;;;;3.30;2.88;;;5.70;99.90;;;;;;5028902;28;20030;-68
2021/09/16 04:02:22;;;;;;;6.00;3.50;;;5.70;99.90;;;;;;5028730;28;20030;-68
2021/09/16 04:04:48;;;;;;;4.53;3.83;;;5.70;99.90;;;;;;5028710;28;20025;-68
2021/09/16 04:07:14;;;;;;;5.53;3.28;;;5.70;99.90;;;;;;5028842;28;20025;-68
2021/09/16 04:09:39;;;;;;;5.70;3.50;;;5.70;99.90;;;;;;5028607;28;20029;-67
2021/09/16 04:12:06;;;;;;;5.45;3.30;;;5.70;99.90;;;;;;5028928;28;20101;-68
2021/09/16 04:14:31;;;;;;;5.68;3.35;;;5.70;99.90;;;;;;5028612;28;20059;-68
2021/09/16 04:16:57;;;;;;;6.65;3.78;;;5.70;99.90;;;;;;5028779;28;20022;-68
2021/09/16 04:19:23;;;;;;;7.75;3.60;;;5.60;99.90;;;;;;5028423;28;20054;-68
2021/09/16 04:21:49;;;;;;;6.65;3.40;;;5.70;99.90;;;;;;5031634;28;20397;-68
2021/09/16 04:24:16;;;;;;;9.90;4.07;;;5.60;99.90;;;;;;5030822;28;20067;-68
2021/09/16 04:26:45;;;;;;;6.25;3.60;;;5.60;99.90;;;;;;5032020;28;20048;-68
2021/09/16 04:29:12;;;;;;;6.18;3.72;;;5.60;99.90;;;;;;5032213;28;20025;-68
2021/09/16 04:31:39;;;;;;;5.40;3.50;;;5.70;99.90;;;;;;5031833;28;20032;-67
2021/09/16 04:34:05;;;;;;;7.13;4.28;;;5.70;99.90;;;;;;5032170;28;20533;-66
2021/09/16 04:36:31;;;;;;;7.60;3.80;;;5.70;99.90;;;;;;5031849;28;20030;-66
2021/09/16 04:38:57;;;;;;;3.13;1.80;;;5.80;99.90;;;;;;5031538;28;20041;-69
2021/09/16 04:41:23;;;;;;;7.25;3.58;;;6.50;99.90;;;;;;5032009;28;20028;-65
2021/09/16 04:43:48;;;;;;;9.93;3.22;;;7.60;99.90;;;;;;5031686;28;20481;-66
2021/09/16 04:46:14;;;;;;;7.03;3.50;;;7.40;99.90;;;;;;5031480;28;20024;-66
2021/09/16 04:48:40;;;;;;;8.43;3.20;;;7.10;99.90;;;;;;5031072;28;20044;-67
2021/09/16 04:51:06;;;;;;;8.68;3.25;;;6.80;99.90;;;;;;5031594;28;20467;-66
2021/09/16 04:53:32;;;;;;;6.13;3.67;;;6.70;99.90;;;;;;5031468;28;20036;-66
2021/09/16 04:55:57;;;;;;;5.70;3.17;;;6.50;99.90;;;;;;5031708;28;20026;-67
2021/09/16 04:58:23;;;;;;;5.85;3.88;;;6.40;99.90;;;;;;5031372;28;20445;-66
2021/09/16 05:00:49;;;;;;;6.30;3.70;;;6.40;99.90;;;;;;5031415;28;20127;-65
2021/09/16 05:03:15;;;;;;;4.25;3.80;;;6.40;99.90;;;;;;5031072;28;20480;-65
2021/09/16 05:05:41;;;;;;;7.47;3.80;;;6.40;99.90;;;;;;5031465;28;20026;-64
2021/09/16 05:08:07;;;;;;;4.90;3.60;;;6.30;99.90;;;;;;5031148;28;20053;-65
2021/09/16 05:10:33;;;;;;;9.82;3.92;;;6.30;99.90;;;;;;5029796;28;20052;-65
2021/09/16 05:12:58;;;;;;;10.63;3.85;;;6.30;99.90;;;;;;5031109;28;20533;-64
2021/09/16 05:15:24;;;;;;;6.35;3.63;;;6.30;99.90;;;;;;5031405;28;20032;-65
2021/09/16 05:17:50;;;;;;;6.20;3.90;;;6.40;99.90;;;;;;5031093;28;20029;-65
2021/09/16 05:20:16;;;;;;;9.90;3.97;;;6.40;99.90;;;;;;5031210;28;20030;-67
2021/09/16 05:22:41;;;;;;;11.23;4.82;;;6.40;99.90;;;;;;5031120;28;20037;-65
2021/09/16 05:25:08;;;;;;;19.05;5.45;;;6.50;99.90;;;;;;5030941;28;20108;-65
2021/09/16 05:27:35;;;;;;;7.90;4.20;;;6.60;99.90;;;;;;5030693;28;20033;-65
2021/09/16 05:30:01;;;;;;;9.05;4.90;;;6.60;99.90;;;;;;5031168;28;20068;-65
2021/09/16 05:32:27;;;;;;;6.88;4.40;;;6.70;99.90;;;;;;5030504;28;20425;-65
2021/09/16 05:34:55;;;;;;;9.40;4.38;;;6.70;99.90;;;;;;5031111;28;20037;-65
2021/09/16 05:37:21;;;;;;;6.25;4.25;;;6.80;99.90;;;;;;5030846;28;20026;-65
2021/09/16 05:39:47;;;;;;;7.53;4.57;;;6.90;99.90;;;;;;5029294;28;20037;-65
2021/09/16 05:42:13;;;;;;;12.07;7.00;;;6.90;99.90;;;;;;5030684;28;20100;-65
2021/09/16 05:44:38;;;;;;;12.98;7.80;;;7.00;99.90;;;;;;5030716;28;20128;-65
2021/09/16 05:47:04;;;;;;;8.07;5.50;;;7.10;99.90;;;;;;5030636;28;20472;-65
2021/09/16 05:49:30;;;;;;;12.10;5.65;;;7.20;99.90;;;;;;5030381;28;20129;-65
2021/09/16 05:51:56;;;;;;;7.50;4.93;;;7.20;99.90;;;;;;5030500;28;20125;-65
2021/09/16 05:54:22;;;;;;;10.05;4.70;;;7.30;99.90;;;;;;5030448;28;20030;-65
2021/09/16 05:56:48;;;;;;;8.32;4.95;;;7.30;99.90;;;;;;5030330;28;20025;-65
2021/09/16 05:59:16;;;;;;;14.18;4.20;;;7.30;99.90;;;;;;5030363;28;20556;-65
2021/09/16 06:01:42;;;;;;;6.63;3.97;;;7.40;99.90;;;;;;5030252;28;20034;-65
2021/09/16 06:04:08;;;;;;;8.95;4.38;;;7.40;99.90;;;;;;5030382;28;20030;-65
2021/09/16 06:06:34;;;;;;;9.38;4.38;;;7.50;99.90;;;;;;5030191;28;20029;-66
2021/09/16 06:09:00;;;;;;;6.20;4.30;;;7.50;99.90;;;;;;5030471;28;20025;-66
2021/09/16 06:11:25;;;;;;;5.60;4.00;;;7.60;99.90;;;;;;5030235;28;20070;-65
2021/09/16 06:13:54;;;;;;;8.52;4.70;;;7.70;99.90;;;;;;5030341;28;20029;-65
2021/09/16 06:16:21;;;;;;;5.20;2.47;;;7.70;99.90;;;;;;5030196;28;20022;-69
2021/09/16 06:18:47;;;;;;;10.38;4.35;;;8.40;99.90;;;;;;5028715;28;20496;-65
2021/09/16 06:21:13;;;;;;;5.18;4.25;;;9.20;99.90;;;;;;5030142;28;20036;-65
2021/09/16 06:23:38;;;;;;;7.75;3.95;;;9.10;99.90;;;;;;5029939;28;20033;-65
2021/09/16 06:26:04;;;;;;;7.95;4.47;;;8.90;99.90;;;;;;5030196;28;20040;-65
2021/09/16 06:28:30;;;;;;;6.68;4.30;;;8.70;99.90;;;;;;5029895;28;20033;-65
2021/09/16 06:30:55;;;;;;;5.10;3.92;;;8.60;99.90;;;;;;5028885;28;20109;-65
2021/09/16 06:33:22;;;;;;;6.43;4.15;;;8.60;99.90;;;;;;5030055;28;20030;-65
2021/09/16 06:35:47;;;;;;;5.05;3.85;;;8.60;99.90;;;;;;5029926;28;20025;-65
2021/09/16 06:38:13;;;;;;;5.07;3.90;;;8.60;99.90;;;;;;5029720;28;20034;-65
2021/09/16 06:40:39;;;;;;;7.93;4.18;;;8.60;99.90;;;;;;5029595;28;20033;-64
2021/09/16 06:43:04;;;;;;;5.93;3.97;;;8.80;99.90;;;;;;5028965;28;20430;-64
2021/09/16 06:45:30;;;;;;;3.05;2.05;;;9.00;99.90;;;;;;5029501;28;20026;-68
2021/09/16 06:47:56;;;;;;;14.57;3.78;;;9.50;99.90;;;;;;5028500;28;20025;-64
2021/09/16 06:50:22;;;;;;;39.35;6.25;;;11.40;99.90;;;;;;5029781;28;20503;-65
2021/09/16 06:52:48;;;;;;;5.18;3.30;;;11.50;99.90;;;;;;5029463;28;20404;-65
2021/09/16 06:55:13;;;;;;;5.20;3.30;;;11.20;99.90;;;;;;5029387;28;20041;-65
2021/09/16 06:57:39;;;;;;;4.35;3.15;;;11.10;99.90;;;;;;5029355;28;20405;-65
2021/09/16 07:00:06;;;;;;;4.47;3.60;;;10.90;99.90;;;;;;5029427;28;20033;-65
2021/09/16 07:02:32;;;;;;;18.75;5.47;;;10.80;99.90;;;;;;5029168;28;20033;-64
2021/09/16 07:04:57;;;;;;;5.88;3.70;;;10.80;99.90;;;;;;5029611;28;20504;-64
2021/09/16 07:07:23;;;;;;;4.68;3.22;;;10.80;99.90;;;;;;5029134;28;20411;-64
2021/09/16 07:09:49;;;;;;;6.47;3.75;;;10.80;99.90;;;;;;5029156;28;20021;-64
2021/09/16 07:12:15;;;;;;;4.63;3.08;;;10.80;99.90;;;;;;5029194;28;20590;-65
2021/09/16 07:14:40;;;;;;;4.38;3.22;;;10.80;99.90;;;;;;5029125;28;20045;-65
2021/09/16 07:17:07;;;;;;;4.70;3.45;;;10.80;99.90;;;;;;5029353;28;20404;-65
2021/09/16 07:19:32;;;;;;;4.20;3.30;;;10.80;99.90;;;;;;5028939;28;20056;-66
2021/09/16 07:21:58;;;;;;;4.18;3.13;;;10.80;99.90;;;;;;5029285;28;20481;-65
2021/09/16 07:24:24;;;;;;;6.65;4.20;;;10.60;99.90;;;;;;5029248;28;20492;-66
2021/09/16 07:26:50;;;;;;;4.95;3.63;;;10.50;99.90;;;;;;5029114;28;20112;-64
2021/09/16 07:29:21;;;;;;;4.60;3.22;;;10.50;99.90;;;;;;5029410;28;20040;-64
2021/09/16 07:31:48;;;;;;;4.35;3.17;;;10.50;99.90;;;;;;5029223;28;20442;-64
2021/09/16 07:34:15;;;;;;;5.60;3.17;;;10.40;99.90;;;;;;5027872;28;20029;-64
2021/09/16 07:36:43;;;;;;;5.28;3.42;;;10.40;99.90;;;;;;5028955;28;20075;-64
2021/09/16 07:39:13;;;;;;;3.38;3.05;;;10.30;99.90;;;;;;5028881;28;20086;-66
2021/09/16 07:41:39;;;;;;;11.27;3.33;;;10.20;99.90;;;;;;5029038;28;20014;-66
2021/09/16 07:44:05;;;;;;;4.63;2.88;;;10.20;99.90;;;;;;5028789;28;20396;-66
2021/09/16 07:46:31;;;;;;;3.08;2.50;;;10.20;99.90;;;;;;5028679;28;20032;-66
2021/09/16 07:48:58;;;;;;;3.45;2.63;;;10.20;99.90;;;;;;5028304;28;20053;-66
2021/09/16 07:51:24;;;;;;;4.57;2.53;;;10.20;99.90;;;;;;5028173;28;20042;-66
2021/09/16 07:53:49;;;;;;;2.63;2.40;;;10.30;99.90;;;;;;5028399;28;20013;-66
2021/09/16 07:56:15;;;;;;;4.85;2.70;;;10.30;99.90;;;;;;5031716;28;20032;-66
2021/09/16 07:58:43;;;;;;;8.43;2.90;;;10.30;99.90;;;;;;5031613;28;20048;-66
2021/09/16 08:01:09;;;;;;;2.35;2.15;;;10.30;99.90;;;;;;5031893;28;20029;-66
2021/09/16 08:03:35;;;;;;;3.65;2.28;;;10.30;99.90;;;;;;5032363;28;20142;-66
2021/09/16 08:06:02;;;;;;;2.33;2.00;;;10.30;99.90;;;;;;5032282;28;20026;-66
2021/09/16 08:08:27;;;;;;;2.55;2.30;;;10.30;99.90;;;;;;5032099;28;20578;-66
2021/09/16 08:10:53;;;;;;;6.50;2.15;;;10.40;99.90;;;;;;5032304;28;20033;-66
2021/09/16 08:13:19;;;;;;;2.67;2.15;;;10.40;99.90;;;;;;5031806;28;20104;-66
2021/09/16 08:15:44;;;;;;;4.72;2.45;;;10.40;99.90;;;;;;5031343;28;20021;-66
2021/09/16 08:18:10;;;;;;;6.22;2.05;;;10.40;99.90;;;;;;5031508;28;20033;-66
2021/09/16 08:20:41;;;;;;;6.80;2.80;;;10.40;99.90;;;;;;5031922;28;20104;-67
2021/09/16 08:23:07;;;;;;;2.53;2.03;;;10.40;99.90;;;;;;5032122;28;20022;-65
2021/09/16 08:25:32;;;;;;;2.70;2.03;;;10.40;99.90;;;;;;5032018;28;20074;-66
2021/09/16 08:27:59;;;;;;;5.60;2.03;;;10.50;99.90;;;;;;5031810;28;20034;-66
2021/09/16 08:30:25;;;;;;;3.15;1.80;;;10.50;99.90;;;;;;5032292;28;20026;-66
2021/09/16 08:32:51;;;;;;;2.35;1.90;;;10.50;99.90;;;;;;5031738;28;20047;-66
2021/09/16 08:35:16;;;;;;;2.22;2.03;;;10.50;99.90;;;;;;5031827;28;20096;-66
2021/09/16 08:37:43;;;;;;;2.28;1.65;;;10.50;99.90;;;;;;5031404;28;20104;-67
2021/09/16 08:40:09;;;;;;;5.03;1.92;;;10.70;99.90;;;;;;5031625;28;20034;-67
2021/09/16 08:42:41;;;;;;;5.65;1.77;;;10.90;99.90;;;;;;5031607;28;20026;-67
2021/09/16 08:45:13;;;;;;;6.30;2.22;;;10.80;99.90;;;;;;5031174;28;20029;-67
2021/09/16 08:47:40;;;;;;;2.45;1.40;;;10.60;99.90;;;;;;5031578;28;20018;-67
2021/09/16 08:50:07;;;;;;;2.10;1.73;;;10.50;99.60;;;;;;5031408;28;20037;-67
2021/09/16 08:52:37;;;;;;;5.60;1.48;;;10.40;99.50;;;;;;5031471;28;20125;-67
2021/09/16 08:55:04;;;;;;;1.85;1.70;;;10.40;99.40;;;;;;5030168;28;20120;-67
2021/09/16 08:57:35;;;;;;;2.30;1.50;;;10.40;99.00;;;;;;5031463;28;20029;-67
2021/09/16 09:00:00;;;;;;;2.17;1.50;;;10.40;99.00;;;;;;5030062;28;20043;-68
2021/09/16 09:02:27;;;;;;;2.00;1.50;;;10.40;97.80;;;;;;5031506;28;20404;-69
2021/09/16 09:04:53;;;;;;;4.95;1.77;;;10.30;97.90;;;;;;5030988;28;20119;-66
2021/09/16 09:07:19;;;;;;;1.98;1.42;;;10.40;98.40;;;;;;5030942;28;20037;-66
2021/09/16 09:09:46;;;;;;;3.28;1.50;;;10.40;99.10;;;;;;5031144;28;20408;-65
2021/09/16 09:12:16;;;;;;;3.50;1.70;;;10.60;99.90;;;;;;5031253;28;20034;-65
2021/09/16 09:14:47;;;;;;;2.13;1.92;;;11.10;99.90;;;;;;5031095;28;20147;-65
2021/09/16 09:17:21;;;;;;;1.73;1.63;;;10.90;99.40;;;;;;5031206;28;20122;-65
2021/09/16 09:19:49;;;;;;;1.95;1.75;;;10.80;99.10;;;;;;5030997;28;20038;-65
2021/09/16 09:22:15;;;;;;;1.80;1.70;;;10.80;98.80;;;;;;5031052;28;20108;-65
2021/09/16 09:24:45;;;;;;;1.83;1.50;;;10.80;99.90;;;;;;5030673;28;20041;-68
2021/09/16 09:27:25;;;;;;;4.05;1.33;;;10.70;97.80;;;;;;5031063;28;20064;-68
2021/09/16 09:30:15;;;;;;;2.25;1.65;;;10.70;96.50;;;;;;5031483;28;20033;-68
2021/09/16 09:32:54;;;;;;;1.30;1.20;;;10.60;96.30;;;;;;5030873;28;20028;-68
2021/09/16 09:35:26;;;;;;;10.40;2.17;;;10.60;95.80;;;;;;5031054;28;20116;-68
2021/09/16 09:37:52;;;;;;;1.60;1.50;;;10.50;95.90;;;;;;5031026;28;20081;-68
2021/09/16 09:40:36;;;;;;;1.77;1.35;;;10.50;95.80;;;;;;5030750;28;20026;-69
2021/09/16 09:43:19;;;;;;;4.10;2.00;;;10.40;95.70;;;;;;5030747;28;20022;-69
2021/09/16 09:46:10;;;;;;;3.63;1.80;;;10.40;96.60;;;;;;5030886;28;20021;-69
2021/09/16 09:48:45;;;;;;;3.28;1.90;;;10.30;96.80;;;;;;5030514;28;20026;-69
2021/09/16 09:51:13;;;;;;;7.70;1.45;;;10.30;97.50;;;;;;5030343;28;20044;-69
2021/09/16 09:53:42;;;;;;;7.50;1.42;;;10.20;97.50;;;;;;5030818;28;20354;-69
2021/09/16 09:56:19;;;;;;;1.42;1.33;;;10.20;97.60;;;;;;5030801;28;20069;-68
2021/09/16 09:58:46;;;;;;;1.67;1.10;;;10.10;97.60;;;;;;5030650;28;20033;-68
2021/09/16 10:01:29;;;;;;;3.50;1.40;;;10.10;98.10;;;;;;5030411;28;20021;-68
2021/09/16 10:03:55;;;;;;;9.65;1.75;;;10.10;98.30;;;;;;5030700;28;20029;-67
2021/09/16 10:06:21;;;;;;;3.85;1.90;;;10.10;98.70;;;;;;5030228;28;20477;-68
2021/09/16 10:09:09;;;;;;;6.30;2.17;;;10.10;99.10;;;;;;5030275;28;20085;-68
2021/09/16 10:11:36;;;;;;;1.98;1.80;;;10.00;99.80;;;;;;5030484;28;20112;-67
2021/09/16 10:14:02;;;;;;;3.42;1.75;;;9.90;99.90;;;;;;5030230;28;20025;-69
2021/09/16 10:16:30;;;;;;;1.92;1.65;;;9.90;99.90;;;;;;5030257;28;20085;-69
2021/09/16 10:18:56;;;;;;;2.42;1.77;;;9.90;99.90;;;;;;5028928;28;20029;-69
2021/09/16 10:21:22;;;;;;;4.35;1.90;;;9.90;99.90;;;;;;5030203;28;20022;-69
2021/09/16 10:23:51;;;;;;;2.08;1.58;;;9.90;99.90;;;;;;5030144;28;20420;-69
2021/09/16 10:26:40;;;;;;;2.70;1.65;;;9.90;99.90;;;;;;5030183;28;20381;-69
2021/09/16 10:29:27;;;;;;;2.10;1.48;;;9.80;99.90;;;;;;5030093;28;20029;-69
2021/09/16 10:32:13;;;;;;;2.35;1.50;;;9.80;99.90;;;;;;5029995;28;20029;-68
2021/09/16 10:34:46;;;;;;;1.92;1.50;;;9.90;99.90;;;;;;5016111;28;20040;-68
2021/09/16 10:37:17;;;;;;;2.92;1.60;;;9.80;99.70;;;;;;5029989;28;20077;-69
2021/09/16 10:39:44;;;;;;;3.67;1.70;;;9.90;99.90;;;;;;5029541;28;20584;-69
2021/09/16 10:42:12;;;;;;;2.97;1.48;;;9.90;99.80;;;;;;5029787;28;20017;-69
2021/09/16 10:44:38;;;;;;;3.83;1.52;;;10.00;99.90;;;;;;5029899;28;20025;-69
2021/09/16 10:47:23;;;;;;;13.30;2.45;;;10.00;99.90;;;;;;5029655;28;20059;-68
2021/09/16 10:49:51;;;;;;;6.15;1.35;;;10.10;99.60;;;;;;5029663;28;20044;-68
2021/09/16 10:52:22;;;;;;;7.65;1.40;;;10.20;99.90;;;;;;5028006;28;20076;-69
2021/09/16 10:54:57;;;;;;;1.88;1.42;;;10.20;98.80;;;;;;5029207;28;20074;-69
2021/09/16 10:57:28;;;;;;;3.67;1.25;;;10.10;99.20;;;;;;5029366;28;20044;-68
2021/09/16 10:59:54;;;;;;;1.52;1.25;;;10.00;99.80;;;;;;5029042;28;20042;-68
2021/09/16 11:02:22;;;;;;;6.10;1.73;;;10.10;99.90;;;;;;5029133;28;20033;-68
2021/09/16 11:04:54;;;;;;;7.03;2.20;;;10.10;99.80;;;;;;5028928;28;20476;-69
2021/09/16 11:07:35;;;;;;;1.17;1.10;;;10.10;99.00;;;;;;5029167;28;20481;-69
2021/09/16 11:10:16;;;;;;;1.60;1.50;;;10.20;99.20;;;;;;5029320;28;20032;-69
2021/09/16 11:12:53;;;;;;;3.60;1.50;;;10.20;99.90;;;;;;5029517;28;20022;-68
2021/09/16 11:15:28;;;;;;;2.13;1.58;;;10.20;99.90;;;;;;5027996;28;20060;-68
2021/09/16 11:18:13;;;;;;;1.63;1.23;;;10.30;99.90;;;;;;5028999;28;20055;-69
2021/09/16 11:20:40;;;;;;;2.03;1.75;;;10.30;99.90;;;;;;5029316;28;20033;-69
2021/09/16 11:23:06;;;;;;;13.38;3.90;;;10.30;99.90;;;;;;5029261;28;20113;-69
2021/09/16 11:25:37;;;;;;;8.90;2.58;;;10.30;99.90;;;;;;5029207;28;20040;-68
2021/09/16 11:28:03;;;;;;;8.07;2.00;;;10.20;99.90;;;;;;5029085;28;20021;-69
2021/09/16 11:30:28;;;;;;;2.17;1.60;;;10.20;99.80;;;;;;5028735;28;20028;-69
2021/09/16 11:33:02;;;;;;;16.95;2.10;;;10.30;99.90;;;;;;5029318;28;20207;-69
2021/09/16 11:35:27;;;;;;;2.58;1.33;;;10.30;99.90;;;;;;5029171;28;20403;-69
2021/09/16 11:37:53;;;;;;;2.17;1.27;;;10.30;99.90;;;;;;5028902;28;20076;-69
2021/09/16 11:40:22;;;;;;;1.67;1.58;;;10.30;99.90;;;;;;5028846;28;20036;-69
2021/09/16 11:42:50;;;;;;;3.28;1.40;;;10.30;99.90;;;;;;5029243;28;20060;-69
2021/09/16 11:45:36;;;;;;;10.25;1.70;;;10.30;99.70;;;;;;5028874;28;20034;-69
2021/09/16 11:48:20;;;;;;;1.40;1.30;;;10.30;99.90;;;;;;5029140;28;20017;-69
2021/09/16 11:50:48;;;;;;;3.10;1.38;;;10.30;99.10;;;;;;5028696;28;20053;-69
2021/09/16 11:53:18;;;;;;;1.23;1.13;;;10.30;99.00;;;;;;5029133;28;20038;-69
2021/09/16 11:55:50;;;;;;;2.65;1.35;;;10.30;99.00;;;;;;5028884;28;20018;-69
2021/09/16 11:58:24;;;;;;;1.55;1.40;;;10.30;99.10;;;;;;5028585;28;20053;-68
2021/09/16 12:00:59;;;;;;;3.67;1.50;;;10.30;99.10;;;;;;5028640;28;20486;-69
2021/09/16 12:03:38;;;;;;;4.60;1.38;;;10.30;99.40;;;;;;5028856;28;20407;-69
2021/09/16 12:06:09;;;;;;;1.50;1.40;;;10.30;99.00;;;;;;5028807;28;20029;-69
2021/09/16 12:08:43;;;;;;;1.33;1.23;;;10.30;98.90;;;;;;5028711;28;20484;-69
2021/09/16 12:11:19;;;;;;;3.83;1.40;;;10.30;98.70;;;;;;5028621;28;20053;-68
2021/09/16 12:13:52;;;;;;;5.60;1.92;;;10.30;99.00;;;;;;5028741;28;20025;-68
2021/09/16 12:16:22;;;;;;;2.95;2.10;;;10.30;99.50;;;;;;5028531;28;20022;-68
2021/09/16 12:18:59;;;;;;;6.20;2.55;;;10.30;99.90;;;;;;5028512;28;20038;-68
2021/09/16 12:21:42;;;;;;;3.97;1.50;;;10.20;99.90;;;;;;5028605;28;20018;-69
2021/09/16 12:24:10;;;;;;;2.17;1.50;;;10.20;99.90;;;;;;5028609;28;20112;-69
2021/09/16 12:26:42;;;;;;;27.80;2.28;;;10.20;99.90;;;;;;5028749;28;20030;-69
2021/09/16 12:29:10;;;;;;;1.95;1.70;;;10.20;99.90;;;;;;5028569;28;20434;-69
2021/09/16 12:31:41;;;;;;;4.25;2.00;;;10.20;99.90;;;;;;5028523;28;20044;-69
2021/09/16 12:34:12;;;;;;;2.63;1.50;;;10.20;99.90;;;;;;5028498;28;20408;-69
2021/09/16 12:36:55;;;;;;;20.65;2.95;;;10.20;99.90;;;;;;5028653;28;20074;-68
2021/09/16 12:39:22;;;;;;;1.90;1.60;;;10.10;99.90;;;;;;5028179;28;20041;-68
2021/09/16 12:41:51;;;;;;;4.38;1.70;;;10.10;99.90;;;;;;5029622;28;20033;-68
2021/09/16 12:44:19;;;;;;;1.65;1.55;;;10.10;99.90;;;;;;5032011;28;20045;-68
2021/09/16 12:46:55;;;;;;;7.18;1.90;;;10.10;99.90;;;;;;5031463;28;20013;-68
2021/09/16 12:49:53;;;;;;;4.28;1.40;;;10.10;99.90;;;;;;5031722;28;20101;-68
2021/09/16 12:52:22;;;;;;;1.50;1.27;;;10.00;99.90;;;;;;5016320;28;20057;-68
2021/09/16 12:54:54;;;;;;;1.60;1.50;;;9.90;99.90;;;;;;5031803;28;20513;-68
2021/09/16 12:57:26;;;;;;;2.53;1.73;;;9.90;99.90;;;;;;5031512;28;20032;-68
2021/09/16 12:59:54;;;;;;;3.65;1.65;;;9.90;99.90;;;;;;5031545;28;20037;-68
2021/09/16 13:02:22;;;;;;;2.13;1.30;;;9.80;99.90;;;;;;5031475;28;20075;-68
2021/09/16 13:05:16;;;;;;;6.32;1.40;;;9.80;99.90;;;;;;5031701;28;20025;-68
2021/09/16 13:07:43;;;;;;;4.30;2.10;;;9.80;99.90;;;;;;5018736;28;20036;-68
2021/09/16 13:10:23;;;;;;;8.63;2.30;;;9.80;99.90;;;;;;5031473;28;20040;-68
2021/09/16 13:13:07;;;;;;;6.55;2.22;;;9.80;99.90;;;;;;5031103;28;20055;-68
2021/09/16 13:15:34;;;;;;;9.90;1.50;;;9.80;99.90;;;;;;5031318;28;20021;-68
2021/09/16 13:18:05;;;;;;;10.32;1.65;;;9.90;99.90;;;;;;5031236;28;20040;-68
2021/09/16 13:20:31;;;;;;;;;;;9.80;99.90;;;;;;5031852;28;20029;-68
2021/09/16 13:22:56;;;;;;;5.45;1.80;;;9.90;99.90;;;;;;5031284;28;19958;-68
2021/09/16 13:25:23;;;;;;;5.28;1.77;;;9.80;99.90;;;;;;5029765;28;20548;-68